createdAt,value
2022-09-13T00:00:10.211Z,99054.28
2022-09-13T00:02:38.162Z,99062.16
2022-09-13T00:05:05.756Z,99070.25
2022-09-13T00:07:32.821Z,99064.56
2022-09-13T00:10:00.147Z,99061.03
2022-09-13T00:12:27.301Z,99067.56
2022-09-13T00:14:55.232Z,99064.56
2022-09-13T00:17:26.166Z,99053.19
2022-09-13T00:19:53.418Z,99060.25
2022-09-13T00:22:20.681Z,99049.66
2022-09-13T00:24:47.816Z,99050.19
2022-09-13T00:27:15.183Z,99038.53
2022-09-13T00:29:43.318Z,99039.09
2022-09-13T00:32:10.519Z,99046.94
2022-09-13T00:34:38.116Z,99055.63
2022-09-13T00:37:05.558Z,99058.59
2022-09-13T00:39:33.392Z,99039.63
2022-09-13T00:42:00.494Z,99029.59
2022-09-13T00:44:48.240Z,99050.19
2022-09-13T00:47:21.266Z,99041.53
2022-09-13T00:49:51.111Z,99049.38
2022-09-13T00:52:21.055Z,99045.84
2022-09-13T00:54:56.374Z,99042.06
2022-09-13T00:57:25.395Z,99056.16
2022-09-13T01:00:13.641Z,99038.28
2022-09-13T01:02:45.026Z,99052.38
2022-09-13T01:05:13.475Z,99058.59
2022-09-13T01:07:41.909Z,99047.75
2022-09-13T01:10:09.440Z,99051.00
2022-09-13T01:12:48.616Z,99047.22
2022-09-13T01:15:16.200Z,99051.28
2022-09-13T01:17:44.187Z,99036.88
2022-09-13T01:20:12.950Z,99042.88
2022-09-13T01:23:06.651Z,99026.84
2022-09-13T01:25:56.796Z,99043.66
2022-09-13T01:28:42.929Z,99040.94
2022-09-13T01:31:19.069Z,99033.03
2022-09-13T01:33:53.075Z,99040.91
2022-09-13T01:36:21.125Z,99055.22
2022-09-13T01:39:03.361Z,99033.53
2022-09-13T01:42:10.117Z,99054.66
2022-09-13T01:45:06.479Z,99030.56
2022-09-13T01:47:39.119Z,99028.38
2022-09-13T01:50:51.145Z,99036.50
2022-09-13T01:53:49.498Z,99020.78
2022-09-13T01:56:49.036Z,99002.59
2022-09-13T01:59:29.081Z,99031.91
2022-09-13T02:02:19.826Z,99048.97
2022-09-13T02:04:54.381Z,99023.78
2022-09-13T02:07:36.657Z,99021.34
2022-09-13T02:10:12.199Z,99005.88
2022-09-13T02:12:42.938Z,99004.25
2022-09-13T02:15:10.134Z,99016.47
2022-09-13T02:17:41.321Z,99011.84
2022-09-13T02:20:33.161Z,99002.09
2022-09-13T02:23:04.926Z,99000.75
2022-09-13T02:25:36.563Z,98997.97
2022-09-13T02:28:08.374Z,99015.38
2022-09-13T02:30:40.628Z,99006.16
2022-09-13T02:33:13.637Z,99027.84
2022-09-13T02:35:53.831Z,99042.72
2022-09-13T02:38:28.956Z,99025.94
2022-09-13T02:41:20.472Z,99015.91
2022-09-13T02:43:52.126Z,99024.56
2022-09-13T02:46:28.145Z,99015.63
2022-09-13T02:49:08.444Z,99024.03
2022-09-13T02:51:55.591Z,99016.13
2022-09-13T02:54:34.747Z,99006.09
2022-09-13T02:57:18.638Z,99011.53
2022-09-13T02:59:48.230Z,99011.78
2022-09-13T03:02:26.698Z,99014.22
2022-09-13T03:04:54.303Z,99005.53
2022-09-13T03:07:21.410Z,98982.50
2022-09-13T03:09:58.480Z,98980.91
2022-09-13T03:13:13.216Z,98998.81
2022-09-13T03:15:40.415Z,98994.19
2022-09-13T03:18:41.234Z,99002.06
2022-09-13T03:21:45.427Z,98995.28
2022-09-13T03:24:36.510Z,98992.59
2022-09-13T03:27:20.314Z,98999.88
2022-09-13T03:30:04.620Z,98992.34
2022-09-13T03:33:01.166Z,98996.41
2022-09-13T03:35:49.841Z,98988.81
2022-09-13T03:38:27.564Z,98989.91
2022-09-13T03:41:07.517Z,98996.97
2022-09-13T03:43:40.555Z,98992.91
2022-09-13T03:46:13.546Z,98990.47
2022-09-13T03:48:44.871Z,98981.78
2022-09-13T03:51:12.739Z,98999.13
2022-09-13T03:53:50.628Z,99000.53
2022-09-13T03:56:22.434Z,98981.56
2022-09-13T03:58:49.939Z,98966.66
2022-09-13T04:01:21.150Z,98987.81
2022-09-13T04:03:49.540Z,98985.13
2022-09-13T04:06:19.066Z,98981.06
2022-09-13T04:08:46.117Z,98994.59
2022-09-13T04:11:13.312Z,99000.28
2022-09-13T04:13:41.817Z,98980.78
2022-09-13T04:16:11.290Z,98971.59
2022-09-13T04:18:41.231Z,98972.13
2022-09-13T04:21:18.685Z,98963.44
2022-09-13T04:23:50.742Z,98975.38
2022-09-13T04:26:17.917Z,98964.50
2022-09-13T04:28:45.215Z,98984.03
2022-09-13T04:31:13.935Z,98981.88
2022-09-13T04:33:43.941Z,98984.28
2022-09-13T04:36:13.759Z,98981.56
2022-09-13T04:39:37.749Z,98985.31
2022-09-13T04:42:05.519Z,98999.47
2022-09-13T04:44:33.140Z,98983.44
2022-09-13T04:47:00.601Z,98963.94
2022-09-13T04:49:27.801Z,98993.72
2022-09-13T04:51:54.915Z,98990.72
2022-09-13T04:54:25.120Z,98978.81
2022-09-13T04:56:58.133Z,98987.72
2022-09-13T04:59:25.283Z,98994.22
2022-09-13T05:01:52.775Z,98988.22
2022-09-13T05:04:24.800Z,99004.50
2022-09-13T05:06:55.326Z,98970.91
2022-09-13T05:09:22.619Z,98993.59
2022-09-13T05:11:49.919Z,98987.66
2022-09-13T05:14:25.488Z,98986.31
2022-09-13T05:17:16.587Z,98960.28
2022-09-13T05:19:51.361Z,98977.66
2022-09-13T05:22:21.382Z,98971.44
2022-09-13T05:24:55.965Z,98979.53
2022-09-13T05:27:25.825Z,99027.25
2022-09-13T05:29:54.423Z,98981.94
2022-09-13T05:32:21.368Z,98992.22
2022-09-13T05:34:48.957Z,98991.16
2022-09-13T05:37:18.794Z,98992.50
2022-09-13T05:40:09.842Z,98998.47
2022-09-13T05:42:32.841Z,99000.09
2022-09-13T05:44:59.809Z,99031.59
2022-09-13T05:47:26.881Z,99006.34
2022-09-13T05:50:10.815Z,99002.53
2022-09-13T05:52:39.044Z,99020.72
2022-09-13T05:55:06.336Z,99001.44
2022-09-13T05:57:33.426Z,98998.47
2022-09-13T06:00:00.522Z,99006.34
2022-09-13T06:02:27.576Z,98995.75
2022-09-13T06:04:54.672Z,99001.97
2022-09-13T06:07:21.569Z,99012.22
2022-09-13T06:09:49.896Z,99003.00
2022-09-13T06:12:16.839Z,99006.50
2022-09-13T06:14:43.829Z,98998.63
2022-09-13T06:17:10.929Z,99009.16
2022-09-13T06:19:37.914Z,99011.84
2022-09-13T06:22:07.646Z,99007.44
2022-09-13T06:24:37.652Z,98998.19
2022-09-13T06:27:04.938Z,98998.09
2022-09-13T06:29:32.232Z,99008.06
2022-09-13T06:31:59.273Z,98999.88
2022-09-13T06:34:31.144Z,99007.41
2022-09-13T06:36:58.836Z,99013.09
2022-09-13T06:39:25.827Z,99000.81
2022-09-13T06:41:52.921Z,99016.84
2022-09-13T06:44:26.515Z,99002.97
2022-09-13T06:46:53.502Z,99018.47
2022-09-13T06:49:20.514Z,98996.78
2022-09-13T06:51:47.830Z,99002.69
2022-09-13T06:54:22.279Z,98990.75
2022-09-13T06:56:50.640Z,98997.53
2022-09-13T06:59:17.675Z,98980.22
2022-09-13T07:01:45.104Z,98997.28
2022-09-13T07:04:17.532Z,98982.31
2022-09-13T07:06:47.841Z,98994.25
2022-09-13T07:09:23.781Z,99008.88
2022-09-13T07:11:53.648Z,98977.56
2022-09-13T07:14:26.894Z,98978.53
2022-09-13T07:16:55.026Z,98966.28
2022-09-13T07:19:26.489Z,98967.53
2022-09-13T07:21:55.259Z,98957.22
2022-09-13T07:24:22.790Z,98964.16
2022-09-13T07:26:50.827Z,98980.41
2022-09-13T07:29:22.849Z,98982.16
2022-09-13T07:31:55.089Z,98969.44
2022-09-13T07:34:24.391Z,98962.56
2022-09-13T07:36:52.666Z,98961.59
2022-09-13T07:39:23.061Z,98958.78
2022-09-13T07:41:54.034Z,98942.75
2022-09-13T07:44:21.241Z,98961.47
2022-09-13T07:46:48.290Z,98961.75
2022-09-13T07:49:18.350Z,98956.66
2022-09-13T07:51:45.813Z,98943.22
2022-09-13T07:54:15.563Z,98947.16
2022-09-13T07:56:42.918Z,98945.97
2022-09-13T07:59:17.644Z,98949.63
2022-09-13T08:01:47.522Z,98944.16
2022-09-13T08:04:21.329Z,98936.06
2022-09-13T08:06:48.635Z,98949.84
2022-09-13T08:09:16.468Z,98937.28
2022-09-13T08:11:45.978Z,98925.88
2022-09-13T08:14:15.666Z,98931.63
2022-09-13T08:16:43.276Z,98926.19
2022-09-13T08:19:16.612Z,98940.03
2022-09-13T08:21:44.515Z,98931.13
2022-09-13T08:24:21.406Z,98933.25
2022-09-13T08:26:49.608Z,98932.66
2022-09-13T08:29:25.607Z,98924.66
2022-09-13T08:31:55.691Z,98929.66
2022-09-13T08:34:22.641Z,98933.91
2022-09-13T08:36:49.630Z,98889.78
2022-09-13T08:39:19.894Z,98913.78
2022-09-13T08:42:08.069Z,98922.69
2022-09-13T08:44:42.833Z,98913.59
2022-09-13T08:47:32.033Z,98908.03
2022-09-13T08:50:13.034Z,98914.91
2022-09-13T08:53:12.376Z,98901.34
2022-09-13T08:56:08.621Z,98909.75
2022-09-13T08:59:01.874Z,98896.88
2022-09-13T09:01:56.906Z,98904.56
2022-09-13T09:04:27.181Z,98888.41
2022-09-13T09:07:10.167Z,98898.00
2022-09-13T09:09:52.244Z,98892.00
2022-09-13T09:12:50.326Z,98879.75
2022-09-13T09:15:43.494Z,98887.50
2022-09-13T09:18:32.970Z,98873.72
2022-09-13T09:21:01.912Z,98875.94
2022-09-13T09:23:54.452Z,98870.19
2022-09-13T09:26:31.593Z,98866.94
2022-09-13T09:29:24.682Z,98863.00
2022-09-13T09:32:28.713Z,98864.53
2022-09-13T09:35:34.437Z,98858.69
2022-09-13T09:38:28.261Z,98878.06
2022-09-13T09:40:55.398Z,98862.88
2022-09-13T09:43:39.164Z,98844.53
2022-09-13T09:46:07.424Z,98849.94
2022-09-13T09:48:46.147Z,98849.00
2022-09-13T09:51:18.098Z,98851.84
2022-09-13T09:53:48.777Z,98843.69
2022-09-13T09:56:29.022Z,98849.34
2022-09-13T09:58:56.105Z,98853.88
2022-09-13T10:01:30.915Z,98852.44
2022-09-13T10:04:10.786Z,98834.50
2022-09-13T10:06:49.949Z,98847.66
2022-09-13T10:09:21.976Z,98844.41
2022-09-13T10:11:59.262Z,98839.06
2022-09-13T10:14:45.002Z,98841.44
2022-09-13T10:17:27.722Z,98834.81
2022-09-13T10:20:26.848Z,98842.69
2022-09-13T10:23:15.455Z,98830.78
2022-09-13T10:25:47.829Z,98827.03
2022-09-13T10:28:19.269Z,98836.66
2022-09-13T10:30:56.554Z,98826.34
2022-09-13T10:33:36.840Z,98826.28
2022-09-13T10:36:50.577Z,98822.84
2022-09-13T10:39:18.935Z,98814.88
2022-09-13T10:41:58.381Z,98812.06
2022-09-13T10:44:43.370Z,98802.19
2022-09-13T10:47:23.587Z,98810.09
2022-09-13T10:49:53.945Z,98792.63
2022-09-13T10:52:24.184Z,98802.13
2022-09-13T10:54:51.473Z,98802.53
2022-09-13T10:57:34.648Z,98803.34
2022-09-13T11:00:11.401Z,98797.28
2022-09-13T11:02:46.983Z,98798.94
2022-09-13T11:05:30.273Z,98801.13
2022-09-13T11:08:38.759Z,98799.00
2022-09-13T11:11:14.686Z,98789.00
2022-09-13T11:14:09.994Z,98792.53
2022-09-13T11:16:58.159Z,98782.75
2022-09-13T11:19:33.948Z,98780.63
2022-09-13T11:22:06.838Z,98783.16
2022-09-13T11:24:34.202Z,98782.66
2022-09-13T11:27:09.810Z,98773.97
2022-09-13T11:30:07.423Z,98783.16
2022-09-13T11:33:01.527Z,98774.16
2022-09-13T11:35:36.469Z,98760.91
2022-09-13T11:38:22.050Z,98763.94
2022-09-13T11:41:06.106Z,98761.31
2022-09-13T11:43:48.679Z,98773.16
2022-09-13T11:46:22.425Z,98755.25
2022-09-13T11:49:06.599Z,98743.31
2022-09-13T11:52:07.525Z,98753.34
2022-09-13T11:54:46.141Z,98745.06
2022-09-13T11:57:20.155Z,98722.44
2022-09-13T11:59:55.758Z,98731.31
2022-09-13T12:02:50.287Z,98737.16
2022-09-13T12:05:24.397Z,98715.69
2022-09-13T12:08:01.280Z,98746.88
2022-09-13T12:10:34.671Z,98747.78
2022-09-13T12:13:04.706Z,98720.31
2022-09-13T12:15:41.658Z,98731.03
2022-09-13T12:18:22.929Z,98711.13
2022-09-13T12:21:10.385Z,98720.31
2022-09-13T12:23:51.073Z,98752.44
2022-09-13T12:26:31.547Z,98723.75
2022-09-13T12:29:09.726Z,98719.09
2022-09-13T12:31:39.456Z,98710.03
2022-09-13T12:34:12.085Z,98715.16
2022-09-13T12:37:04.012Z,98709.06
2022-09-13T12:39:34.173Z,98705.56
2022-09-13T12:42:18.219Z,98691.41
2022-09-13T12:44:45.225Z,98693.63
2022-09-13T12:47:18.268Z,98703.44
2022-09-13T12:50:01.757Z,98702.31
2022-09-13T12:53:24.012Z,98699.88
2022-09-13T12:56:12.631Z,98699.09
2022-09-13T13:02:43.742Z,98680.97
2022-09-13T13:05:39.107Z,98660.78
2022-09-13T13:08:55.903Z,98685.56
2022-09-13T13:11:41.026Z,98684.97
2022-09-13T13:19:33.346Z,98689.78
2022-09-13T13:22:37.592Z,98693.63
2022-09-13T13:25:30.686Z,98677.06
2022-09-13T13:28:00.056Z,98680.09
2022-09-13T13:30:42.297Z,98666.69
2022-09-13T13:33:27.479Z,98668.97
2022-09-13T13:35:56.207Z,98673.91
2022-09-13T13:38:34.250Z,98657.25
2022-09-13T13:41:34.403Z,98655.63
2022-09-13T13:44:22.335Z,98643.13
2022-09-13T13:46:55.614Z,98652.31
2022-09-13T13:49:31.793Z,98655.53
2022-09-13T13:52:11.039Z,98648.28
2022-09-13T13:54:59.770Z,98641.09
2022-09-13T13:57:50.495Z,98648.78
2022-09-13T14:00:24.854Z,98629.81
2022-09-13T14:02:54.511Z,98651.09
2022-09-13T14:05:32.826Z,98646.13
2022-09-13T14:08:29.806Z,98661.88
2022-09-13T14:11:19.089Z,98645.81
2022-09-13T14:13:49.156Z,98657.16
2022-09-13T14:16:48.288Z,98648.41
2022-09-13T14:19:23.203Z,98639.47
2022-09-13T14:22:15.460Z,98652.94
2022-09-13T14:24:53.928Z,98673.22
2022-09-13T14:27:30.489Z,98629.56
2022-09-13T14:30:05.379Z,98639.06
2022-09-13T14:32:47.457Z,98637.66
2022-09-13T14:35:34.761Z,98637.94
2022-09-13T14:38:33.744Z,98644.63
2022-09-13T14:41:15.068Z,98649.88
2022-09-13T14:43:43.694Z,98654.31
2022-09-13T14:46:19.829Z,98640.78
2022-09-13T14:48:52.648Z,98647.38
2022-09-13T14:51:33.336Z,98661.31
2022-09-13T14:54:10.655Z,98646.47
2022-09-13T14:56:47.321Z,98653.22
2022-09-13T14:59:48.428Z,98644.63
2022-09-13T15:02:42.733Z,98649.50
2022-09-13T15:05:24.275Z,98630.41
2022-09-13T15:07:58.231Z,98616.06
2022-09-13T15:10:32.344Z,98620.00
2022-09-13T15:13:10.132Z,98619.38
2022-09-13T15:15:45.429Z,98616.47
2022-09-13T15:18:21.451Z,98622.94
2022-09-13T15:21:18.268Z,98626.88
2022-09-13T15:23:51.624Z,98622.91
2022-09-13T15:26:24.135Z,98590.94
2022-09-13T15:28:53.898Z,98630.09
2022-09-13T15:31:32.010Z,98618.78
2022-09-13T15:34:26.658Z,98617.47
2022-09-13T15:37:10.900Z,98622.63
2022-09-13T15:40:16.041Z,98621.00
2022-09-13T15:42:47.744Z,98630.09
2022-09-13T15:45:15.268Z,98618.97
2022-09-13T15:47:47.422Z,98608.16
2022-09-13T15:50:27.605Z,98603.81
2022-09-13T15:53:11.951Z,98619.97
2022-09-13T15:55:40.642Z,98597.56
2022-09-13T15:58:16.772Z,98602.69
2022-09-13T16:01:01.721Z,98565.03
2022-09-13T16:07:30.020Z,98584.66
2022-09-13T16:10:01.726Z,98591.72
2022-09-13T16:12:37.332Z,98602.09
2022-09-13T16:15:11.396Z,98605.28
2022-09-13T16:17:42.316Z,98583.16
2022-09-13T16:20:20.760Z,98606.38
2022-09-13T16:22:48.332Z,98584.06
2022-09-13T16:25:16.158Z,98573.41
2022-09-13T16:27:44.925Z,98581.81
2022-09-13T16:30:17.597Z,98578.63
2022-09-13T16:32:45.128Z,98590.09
2022-09-13T16:35:17.229Z,98602.38
2022-09-13T16:37:45.453Z,98618.63
2022-09-13T16:40:22.032Z,98574.31
2022-09-13T16:42:49.740Z,98593.56
2022-09-13T16:45:23.260Z,98616.13
2022-09-13T16:47:53.583Z,98578.63
2022-09-13T16:50:50.506Z,98599.53
2022-09-13T16:53:46.548Z,98569.44
2022-09-13T16:56:17.225Z,98569.88
2022-09-13T16:59:08.719Z,98556.97
2022-09-13T17:01:44.474Z,98563.56
2022-09-13T17:04:13.516Z,98580.09
2022-09-13T17:06:41.306Z,98593.03
2022-09-13T17:09:30.877Z,98559.38
2022-09-13T17:12:00.103Z,98545.34
2022-09-13T17:14:27.950Z,98566.94
2022-09-13T17:16:58.273Z,98575.41
2022-09-13T17:19:33.824Z,98562.41
2022-09-13T17:22:08.625Z,98554.97
2022-09-13T17:24:40.901Z,98557.84
2022-09-13T17:30:31.997Z,98521.69
2022-09-13T17:33:05.126Z,98542.41
2022-09-13T17:35:33.112Z,98545.63
2022-09-13T17:38:09.706Z,98528.00
2022-09-13T17:40:51.804Z,98526.47
2022-09-13T17:48:03.113Z,98531.59
2022-09-13T17:51:00.335Z,98518.44
2022-09-13T17:57:15.878Z,98501.72
2022-09-13T17:59:56.332Z,98506.63
2022-09-13T18:03:17.558Z,98520.22
2022-09-13T18:14:46.442Z,98483.28
2022-09-13T18:17:16.891Z,98506.13
2022-09-13T18:20:03.697Z,98506.75
2022-09-13T18:22:34.167Z,98489.09
2022-09-13T18:25:06.003Z,98489.75
2022-09-13T18:27:56.129Z,98475.75
2022-09-13T18:34:27.804Z,98472.59
2022-09-13T18:37:41.268Z,98488.50
2022-09-13T18:40:21.320Z,98467.59
2022-09-13T18:43:12.518Z,98458.88
2022-09-13T18:49:53.142Z,98444.28
2022-09-13T18:52:30.504Z,98444.34
2022-09-13T18:54:57.816Z,98432.38
2022-09-13T18:57:26.583Z,98432.91
2022-09-13T19:00:01.168Z,98419.13
2022-09-13T19:02:34.473Z,98423.31
2022-09-13T19:05:04.300Z,98421.13
2022-09-13T19:07:34.124Z,98434.56
2022-09-13T19:10:28.789Z,98425.78
2022-09-13T19:12:56.135Z,98398.44
2022-09-13T19:15:26.577Z,98421.00
2022-09-13T19:17:53.890Z,98395.94
2022-09-13T19:20:22.917Z,98422.34
2022-09-13T19:23:03.439Z,98385.53
2022-09-13T19:25:30.760Z,98417.13
2022-09-13T19:28:00.679Z,98374.25
2022-09-13T19:30:27.974Z,98380.69
2022-09-13T19:32:57.565Z,98372.91
2022-09-13T19:35:24.765Z,98359.22
2022-09-13T19:37:58.017Z,98347.34
2022-09-13T19:40:34.191Z,98360.19
2022-09-13T19:54:18.923Z,98346.56
2022-09-13T19:57:23.565Z,98343.97
2022-09-13T19:59:52.975Z,98322.31
2022-09-13T20:02:25.226Z,98336.22
2022-09-13T20:04:53.368Z,98320.41
2022-09-13T20:07:36.906Z,98331.59
2022-09-13T20:10:04.434Z,98336.34
2022-09-13T20:12:39.714Z,98312.06
2022-09-13T20:15:10.825Z,98319.53
2022-09-13T20:17:39.462Z,98329.84
2022-09-13T20:20:19.078Z,98313.69
2022-09-13T20:23:00.095Z,98301.56
2022-09-13T20:25:30.700Z,98303.47
2022-09-13T20:28:15.365Z,98294.31
2022-09-13T20:30:56.275Z,98288.09
2022-09-13T20:33:24.030Z,98276.75
2022-09-13T20:35:54.859Z,98274.88
2022-09-13T20:38:33.969Z,98313.81
2022-09-13T20:41:20.068Z,98300.09
2022-09-13T20:43:51.377Z,98301.75
2022-09-13T20:46:24.579Z,98285.41
2022-09-13T20:48:53.770Z,98300.50
2022-09-13T20:51:25.566Z,98292.81
2022-09-13T20:54:00.811Z,98284.16
2022-09-13T20:56:29.463Z,98284.59
2022-09-13T20:59:00.754Z,98257.28
2022-09-13T21:01:31.843Z,98270.38
2022-09-13T21:04:01.450Z,98299.25
2022-09-13T21:06:31.084Z,98276.81
2022-09-13T21:09:00.265Z,98261.19
2022-09-13T21:11:33.589Z,98275.00
2022-09-13T21:14:06.528Z,98279.03
2022-09-13T21:16:36.748Z,98262.41
2022-09-13T21:19:04.133Z,98271.44
2022-09-13T21:21:34.685Z,98252.91
2022-09-13T21:24:06.030Z,98253.63
2022-09-13T21:26:33.347Z,98257.88
2022-09-13T21:29:00.908Z,98240.88
2022-09-13T21:31:30.252Z,98246.00
2022-09-13T21:34:04.186Z,98254.38
2022-09-13T21:36:34.768Z,98237.59
2022-09-13T21:39:02.376Z,98242.78
2022-09-13T21:41:29.762Z,98238.69
2022-09-13T21:43:56.960Z,98238.47
2022-09-13T21:46:26.636Z,98230.34
2022-09-13T21:49:00.739Z,98230.56
2022-09-13T21:51:42.089Z,98244.63
2022-09-13T21:54:16.121Z,98224.63
2022-09-13T21:56:45.374Z,98229.97
2022-09-13T21:59:15.812Z,98231.34
2022-09-13T22:01:46.943Z,98229.41
2022-09-13T22:04:20.217Z,98231.59
2022-09-13T22:06:51.680Z,98203.66
2022-09-13T22:09:19.539Z,98225.72
2022-09-13T22:11:49.627Z,98235.69
2022-09-13T22:14:18.788Z,98224.84
2022-09-13T22:16:49.438Z,98241.69
2022-09-13T22:19:26.176Z,98220.59
2022-09-13T22:21:56.272Z,98214.06
2022-09-13T22:24:25.389Z,98208.66
2022-09-13T22:26:56.555Z,98206.22
2022-09-13T22:29:24.243Z,98208.66
2022-09-13T22:31:56.703Z,98200.06
2022-09-13T22:34:25.429Z,98197.81
2022-09-13T22:36:55.359Z,98199.69
2022-09-13T22:39:22.947Z,98210.56
2022-09-13T22:41:50.103Z,98188.41
2022-09-13T22:44:17.155Z,98182.19
2022-09-13T22:46:45.701Z,98209.22
2022-09-13T22:49:14.908Z,98191.88
2022-09-13T22:51:45.166Z,98168.06
2022-09-13T22:54:13.853Z,98185.34
2022-09-13T22:56:41.452Z,98163.38
2022-09-13T22:59:12.680Z,98154.78
2022-09-13T23:01:41.932Z,98153.91
2022-09-13T23:04:09.465Z,98158.22
2022-09-13T23:06:36.728Z,98149.06
2022-09-13T23:09:06.831Z,98159.84
2022-09-13T23:11:40.832Z,98159.03
2022-09-13T23:14:13.332Z,98139.78
2022-09-13T23:16:51.878Z,98155.44
2022-09-13T23:19:22.129Z,98122.28
2022-09-13T23:21:49.285Z,98135.38
2022-09-13T23:24:18.472Z,98127.81
2022-09-13T23:26:46.903Z,98137.88
2022-09-13T23:29:16.830Z,98127.25
2022-09-13T23:31:44.489Z,98122.41
2022-09-13T23:34:12.204Z,98124.53
2022-09-13T23:36:41.596Z,98122.88
2022-09-13T23:39:13.199Z,98124.78
2022-09-13T23:41:40.944Z,98129.59
2022-09-13T23:44:07.944Z,98119.34
2022-09-13T23:46:35.356Z,98122.88
2022-09-13T23:49:04.926Z,98111.13
2022-09-13T23:51:32.141Z,98097.41
2022-09-13T23:54:01.080Z,98100.28
2022-09-13T23:56:30.924Z,98102.19
2022-09-13T23:58:59.828Z,98100.59
